Time;durP1;ratioP1;P1;durP2;ratioP2;P2;SDS_P1;SDS_P2;PMS_P1;PMS_P2;Temp;Humidity;BMP_temperature;BMP_pressure;BME280_temperature;BME280_humidity;BME280_pressure;Samples;Min_cycle;Max_cycle;Signal;HPM_P1;HPM_P2
2023/01/17 00:01:08;;;;;;;10.38;4.03;;;;;;;4.17;66.43;98124.28;5003364;28;20074;-54
2023/01/17 00:09:51;;;;;;;9.23;4.28;;;;;;;4.14;66.34;98114.13;5006311;28;20109;-53
2023/01/17 00:11:55;;;;;;;10.00;4.88;;;;;;;3.94;66.65;98108.59;5006454;28;20595;-55
2023/01/17 00:14:21;;;;;;;11.52;4.85;;;;;;;3.91;66.83;98110.59;5002401;28;20177;-54
2023/01/17 00:16:46;;;;;;;9.15;4.53;;;;;;;3.88;66.67;98114.22;5004956;28;20078;-53
2023/01/17 01:33:44;;;;;;;9.48;4.35;;;;;;;3.66;67.61;98021.31;5001530;28;20121;-55
2023/01/17 01:36:09;;;;;;;12.35;4.65;;;;;;;3.59;67.78;98013.13;5006689;28;20445;-57
2023/01/17 01:38:35;;;;;;;10.70;4.85;;;;;;;3.52;67.88;98017.13;5007192;28;20074;-52
2023/01/17 01:41:01;;;;;;;11.88;5.63;;;;;;;3.45;68.32;98010.69;5006964;28;20086;-51
2023/01/17 01:43:43;;;;;;;9.05;4.78;;;;;;;3.39;68.26;98008.56;5008282;28;20128;-52
2023/01/17 01:46:12;;;;;;;9.15;4.43;;;;;;;3.37;68.33;98013.03;5001133;28;20454;-52
2023/01/17 01:48:45;;;;;;;10.10;4.38;;;;;;;3.32;68.39;98006.38;5004403;28;20779;-54
2023/01/17 01:51:16;;;;;;;8.75;4.75;;;;;;;3.27;68.38;98008.47;5007958;28;20092;-51
2023/01/17 01:53:47;;;;;;;10.43;4.75;;;;;;;3.26;68.49;97996.41;5006316;28;20573;-57
2023/01/17 01:56:14;;;;;;;14.55;4.82;;;;;;;3.29;68.38;97991.00;5008585;28;20082;-54
2023/01/17 01:58:44;;;;;;;7.63;4.50;;;;;;;3.30;68.52;97989.25;5005066;28;20105;-51
2023/01/17 02:01:10;;;;;;;11.60;5.18;;;;;;;3.32;68.51;97995.19;4999219;28;20083;-54
2023/01/17 02:03:38;;;;;;;11.63;5.50;;;;;;;3.29;68.53;97990.19;5004508;28;20449;-52
2023/01/17 02:06:28;;;;;;;12.55;6.18;;;;;;;3.23;68.51;97983.66;5003395;28;20463;-54
2023/01/17 02:08:57;;;;;;;9.43;4.93;;;;;;;3.25;68.56;97968.78;5005772;28;20102;-55
2023/01/17 02:11:24;;;;;;;10.63;5.20;;;;;;;3.27;68.75;97973.88;5008134;28;20081;-54
2023/01/17 02:13:49;;;;;;;12.20;5.25;;;;;;;3.28;68.72;97960.75;5003934;28;20109;-51
2023/01/17 02:16:44;;;;;;;11.35;4.88;;;;;;;3.27;68.70;97966.88;5006628;28;20086;-54
2023/01/17 02:19:28;;;;;;;10.40;5.00;;;;;;;3.22;68.62;97948.22;5000662;28;20090;-52
2023/01/17 02:22:08;;;;;;;11.50;5.35;;;;;;;3.23;68.81;97947.28;5001538;28;20086;-52
2023/01/17 02:25:09;;;;;;;9.73;4.70;;;;;;;3.23;68.89;97955.09;5007744;28;20492;-52
2023/01/17 02:28:02;;;;;;;14.52;4.93;;;;;;;3.27;68.82;97960.88;5006574;28;20086;-53
2023/01/17 02:30:32;;;;;;;8.85;4.32;;;;;;;3.27;68.72;97960.88;5001787;28;20078;-50
2023/01/17 02:33:21;;;;;;;10.57;4.70;;;;;;;3.22;68.84;97953.41;5010063;28;20188;-54
2023/01/17 02:36:09;;;;;;;11.48;5.38;;;;;;;3.22;68.84;97948.22;5006973;28;20094;-51
2023/01/17 02:38:49;;;;;;;9.80;5.35;;;;;;;3.26;68.90;97959.22;5007001;28;20161;-53
2023/01/17 02:41:20;;;;;;;11.15;4.70;;;;;;;3.25;68.86;97952.34;5005806;28;20098;-57
2023/01/17 02:43:49;;;;;;;12.15;4.88;;;;;;;3.24;68.92;97946.34;5002815;28;20094;-54
2023/01/17 02:46:15;;;;;;;9.80;4.80;;;;;;;3.21;69.04;97946.56;5011280;28;20074;-53
2023/01/17 02:48:41;;;;;;;7.88;4.57;;;;;;;3.19;69.29;97945.84;5009012;28;20106;-52
2023/01/17 02:51:35;;;;;;;8.55;5.22;;;;;;;3.16;69.32;97951.25;5005358;28;20553;-54
2023/01/17 02:54:30;;;;;;;11.95;4.97;;;;;;;3.13;69.28;97946.28;5003878;28;20588;-52
2023/01/17 02:57:28;;;;;;;9.52;3.97;;;;;;;3.01;69.52;97935.81;5001592;28;20090;-51
2023/01/17 03:00:18;;;;;;;14.48;5.85;;;;;;;2.96;69.59;97944.88;4970538;28;20094;-52
2023/01/17 03:03:16;;;;;;;11.45;4.82;;;;;;;2.96;69.96;97937.09;5008399;28;20086;-53
2023/01/17 03:05:53;;;;;;;14.57;5.40;;;;;;;3.04;69.67;97943.41;4995048;28;20162;-53
2023/01/17 03:08:20;;;;;;;9.90;5.18;;;;;;;3.14;69.28;97951.38;5011302;28;20156;-54
2023/01/17 03:10:45;;;;;;;13.23;5.78;;;;;;;3.22;69.58;97944.78;5009196;28;20521;-52
2023/01/17 03:13:11;;;;;;;12.73;5.75;;;;;;;3.24;69.45;97948.09;5008659;28;20589;-55
2023/01/17 03:15:38;;;;;;;12.20;6.10;;;;;;;3.25;69.37;97950.59;5008691;28;20094;-52
2023/01/17 03:18:08;;;;;;;10.20;5.72;;;;;;;3.23;69.53;97949.03;5005217;28;20108;-53
2023/01/17 03:20:33;;;;;;;11.57;5.90;;;;;;;3.20;69.56;97947.50;5007280;28;20074;-51
2023/01/17 03:22:59;;;;;;;13.27;6.13;;;;;;;3.20;69.55;97945.72;5007294;28;20430;-57
2023/01/17 03:25:24;;;;;;;12.13;6.00;;;;;;;3.25;69.66;97953.22;5006918;28;20156;-57
2023/01/17 03:27:50;;;;;;;12.48;5.72;;;;;;;3.33;69.45;97948.28;5008765;28;20110;-55
2023/01/17 03:30:16;;;;;;;11.70;5.55;;;;;;;3.41;69.23;97952.91;5009239;28;20136;-55
2023/01/17 03:32:42;;;;;;;12.55;5.72;;;;;;;3.45;69.19;97945.69;5006751;28;20095;-58
2023/01/17 03:35:08;;;;;;;13.05;5.75;;;;;;;3.53;69.23;97940.78;5005430;28;20649;-53
2023/01/17 03:37:33;;;;;;;10.85;5.35;;;;;;;3.59;68.87;97940.31;5007608;28;20086;-56
2023/01/17 03:39:59;;;;;;;12.05;5.70;;;;;;;3.65;69.17;97939.03;5001722;28;20472;-55
2023/01/17 03:42:24;;;;;;;12.93;5.20;;;;;;;3.69;68.77;97939.66;5007947;28;20093;-55
2023/01/17 03:44:50;;;;;;;12.20;5.70;;;;;;;3.72;68.94;97934.19;5008920;28;20099;-56
2023/01/17 03:47:15;;;;;;;14.45;6.20;;;;;;;3.73;68.98;97925.47;5007489;28;20105;-54
2023/01/17 03:49:40;;;;;;;12.48;6.28;;;;;;;3.73;68.91;97922.84;5008351;28;20472;-55
2023/01/17 03:52:06;;;;;;;9.80;5.97;;;;;;;3.69;68.99;97918.84;5010323;28;20085;-54
2023/01/17 03:54:32;;;;;;;9.20;5.68;;;;;;;3.64;69.17;97909.63;5002650;28;20101;-52
2023/01/17 03:56:57;;;;;;;10.68;6.28;;;;;;;3.58;69.44;97914.44;5004298;28;20493;-54
2023/01/17 03:59:22;;;;;;;14.00;6.57;;;;;;;3.51;69.59;97911.47;5002703;28;20524;-51
2023/01/17 04:01:48;;;;;;;13.95;6.25;;;;;;;3.46;69.61;97914.41;5005893;28;20556;-55
2023/01/17 04:04:14;;;;;;;10.63;5.75;;;;;;;3.45;69.68;97911.91;5010523;28;20098;-51
2023/01/17 04:06:39;;;;;;;12.43;6.20;;;;;;;3.45;69.57;97920.56;5011081;28;20079;-54
2023/01/17 04:09:05;;;;;;;10.40;5.78;;;;;;;3.46;69.61;97926.56;5008883;28;20090;-54
2023/01/17 04:11:30;;;;;;;10.05;6.63;;;;;;;3.48;69.61;97922.09;5004464;28;20165;-51
2023/01/17 04:13:56;;;;;;;11.73;5.88;;;;;;;3.53;69.76;97927.78;5004642;28;20133;-53
2023/01/17 04:16:27;;;;;;;11.27;5.13;;;;;;;3.57;69.37;97925.78;5003750;28;20090;-56
2023/01/17 04:18:52;;;;;;;13.23;5.65;;;;;;;3.61;69.37;97928.03;5005650;28;20102;-54
2023/01/17 04:21:17;;;;;;;12.70;5.68;;;;;;;3.64;69.41;97925.22;5009094;28;20114;-53
2023/01/17 04:23:43;;;;;;;8.43;5.85;;;;;;;3.71;69.38;97927.34;5010361;28;20148;-53
2023/01/17 04:26:11;;;;;;;10.82;6.00;;;;;;;3.72;69.49;97931.59;5010377;28;20082;-55
2023/01/17 04:28:36;;;;;;;12.32;6.18;;;;;;;3.70;69.41;97923.13;5006354;28;20126;-57
2023/01/17 04:31:02;;;;;;;11.90;5.45;;;;;;;3.72;69.61;97929.00;4998326;28;20178;-52
2023/01/17 04:33:28;;;;;;;12.55;6.43;;;;;;;3.76;69.41;97930.44;5005130;28;20088;-52
2023/01/17 04:35:54;;;;;;;10.85;5.38;;;;;;;3.79;69.12;97925.00;5010541;28;20098;-52
2023/01/17 04:38:20;;;;;;;9.52;5.43;;;;;;;3.85;69.19;97921.97;5002009;28;20078;-55
2023/01/17 04:40:45;;;;;;;7.15;4.38;;;;;;;3.88;69.11;97924.31;5003620;28;20086;-53
2023/01/17 04:43:11;;;;;;;8.15;4.28;;;;;;;3.93;69.09;97918.78;5003547;28;20085;-55
2023/01/17 04:45:37;;;;;;;9.40;5.53;;;;;;;4.01;68.86;97918.22;5005164;28;20108;-51
2023/01/17 04:48:04;;;;;;;5.93;3.47;;;;;;;4.07;68.96;97915.13;5007043;28;20109;-52
2023/01/17 04:50:31;;;;;;;8.90;4.28;;;;;;;4.10;68.61;97913.09;5006984;28;20074;-51
2023/01/17 04:52:57;;;;;;;6.65;3.83;;;;;;;4.14;68.73;97899.88;5007718;28;20078;-52
2023/01/17 04:55:23;;;;;;;7.10;3.95;;;;;;;4.21;68.37;97906.25;5010476;28;20088;-52
2023/01/17 04:57:48;;;;;;;9.63;4.90;;;;;;;4.25;68.50;97905.06;5008395;28;20109;-53
2023/01/17 05:00:14;;;;;;;6.82;3.45;;;;;;;4.25;68.27;97905.91;5001691;28;20094;-53
2023/01/17 05:02:40;;;;;;;8.45;3.97;;;;;;;4.25;68.43;97911.09;5005463;28;20081;-54
2023/01/17 05:05:06;;;;;;;8.18;3.85;;;;;;;4.26;68.40;97911.94;5006268;28;20099;-51
2023/01/17 05:07:31;;;;;;;7.60;4.07;;;;;;;4.25;68.61;97916.31;5006137;28;20692;-54
2023/01/17 05:09:59;;;;;;;7.40;3.17;;;;;;;4.27;68.59;97917.03;5001603;28;20085;-55
2023/01/17 05:12:26;;;;;;;6.65;3.42;;;;;;;4.26;68.63;97912.78;5001205;28;20077;-51
2023/01/17 05:14:51;;;;;;;11.90;4.18;;;;;;;4.29;68.66;97910.88;5009713;28;20129;-50
2023/01/17 05:17:17;;;;;;;8.40;4.38;;;;;;;4.29;68.46;97922.09;5002130;28;20125;-53
2023/01/17 05:19:42;;;;;;;7.28;4.00;;;;;;;4.27;68.68;97914.44;5004924;28;20542;-53
2023/01/17 05:22:13;;;;;;;7.38;3.13;;;;;;;4.30;68.66;97909.94;5002939;28;20074;-54
2023/01/17 05:24:41;;;;;;;6.65;3.50;;;;;;;4.31;68.57;97915.00;5004761;28;20528;-50
2023/01/17 05:27:06;;;;;;;7.60;3.92;;;;;;;4.32;68.65;97921.03;5000371;28;20082;-55
2023/01/17 05:29:32;;;;;;;6.47;3.47;;;;;;;4.35;68.60;97923.41;4999697;28;20165;-51
2023/01/17 05:31:57;;;;;;;7.15;3.13;;;;;;;4.37;68.39;97924.13;4990003;28;20089;-50
2023/01/17 05:34:23;;;;;;;7.15;2.85;;;;;;;4.40;68.33;97921.28;5001949;28;20110;-57
2023/01/17 05:36:48;;;;;;;4.47;2.70;;;;;;;4.42;68.34;97922.81;5001211;28;20113;-54
2023/01/17 05:39:14;;;;;;;7.00;3.63;;;;;;;4.42;68.21;97930.63;4990224;28;20083;-59
2023/01/17 05:41:39;;;;;;;10.70;4.32;;;;;;;4.43;68.32;97928.88;4990485;28;20090;-54
2023/01/17 05:44:05;;;;;;;5.72;3.70;;;;;;;4.47;68.35;97927.66;5004209;28;20098;-55
2023/01/17 05:46:30;;;;;;;8.07;3.22;;;;;;;4.48;68.73;97926.72;5001163;28;20085;-55
2023/01/17 05:48:56;;;;;;;7.13;3.45;;;;;;;4.51;68.69;97933.47;5001456;28;20125;-53
2023/01/17 05:51:21;;;;;;;6.28;3.85;;;;;;;4.55;68.90;97933.13;4999421;28;20121;-51
2023/01/17 05:53:47;;;;;;;6.07;3.78;;;;;;;4.54;68.49;97926.25;4998602;28;20110;-57
2023/01/17 05:56:12;;;;;;;7.05;3.20;;;;;;;4.53;68.44;97934.19;4993308;28;20092;-51
2023/01/17 05:58:38;;;;;;;8.85;3.33;;;;;;;4.54;68.65;97935.81;4999847;28;20213;-57
2023/01/17 06:01:04;;;;;;;5.30;2.58;;;;;;;4.52;68.38;97935.94;5004813;28;20102;-57
2023/01/17 06:03:30;;;;;;;5.15;3.15;;;;;;;4.54;68.65;97941.03;5006687;28;20445;-56
2023/01/17 06:05:55;;;;;;;10.60;4.15;;;;;;;4.55;68.73;97943.53;5011293;28;20075;-57
2023/01/17 06:08:22;;;;;;;6.57;3.08;;;;;;;4.57;68.57;97941.63;5002890;28;20106;-57
2023/01/17 06:10:48;;;;;;;4.57;2.60;;;;;;;4.57;68.26;97946.84;5005041;28;20090;-57
2023/01/17 06:13:19;;;;;;;5.13;3.42;;;;;;;4.61;68.42;97951.81;5005611;28;20094;-55
2023/01/17 06:15:45;;;;;;;10.17;3.17;;;;;;;4.60;68.18;97950.16;5019645;28;20093;-57
2023/01/17 06:18:14;;;;;;;5.68;2.92;;;;;;;4.61;68.59;97955.25;5008257;28;20066;-55
2023/01/17 06:20:40;;;;;;;4.60;2.80;;;;;;;4.62;68.44;97954.28;5008101;28;20157;-58
2023/01/17 06:23:09;;;;;;;5.90;3.10;;;;;;;4.64;68.29;97956.78;5009600;28;20086;-58
2023/01/17 06:25:45;;;;;;;6.00;3.20;;;;;;;4.62;68.72;97956.91;5001644;28;20098;-55
2023/01/17 06:28:13;;;;;;;7.50;3.55;;;;;;;4.59;69.13;97954.53;5004668;28;20608;-53
2023/01/17 06:30:38;;;;;;;4.97;2.60;;;;;;;4.54;68.94;97954.91;5010511;28;20086;-58
2023/01/17 06:35:39;;;;;;;5.03;3.08;;;;;;;4.54;69.32;97954.06;4985092;28;20103;-62
2023/01/17 06:38:04;;;;;;;3.70;2.28;;;;;;;4.53;69.35;97957.63;4985439;28;20125;-61
2023/01/17 06:40:30;;;;;;;3.67;2.40;;;;;;;4.51;69.44;97962.94;4984130;28;20087;-63
2023/01/17 06:43:00;;;;;;;4.72;2.60;;;;;;;4.49;69.90;97959.63;4985481;28;20090;-62
2023/01/17 06:45:25;;;;;;;4.57;2.40;;;;;;;4.51;69.94;97964.72;4982626;28;20098;-63
2023/01/17 06:47:51;;;;;;;4.75;2.55;;;;;;;4.49;70.04;97964.81;4983822;28;20124;-64
2023/01/17 06:50:17;;;;;;;4.95;2.63;;;;;;;4.52;70.30;97959.38;4981895;28;20090;-61
2023/01/17 06:52:42;;;;;;;6.28;3.05;;;;;;;4.52;70.14;97959.38;4989037;28;20158;-61
2023/01/17 06:55:08;;;;;;;3.63;2.22;;;;;;;4.54;70.28;97962.72;4992004;28;20103;-61
2023/01/17 06:57:34;;;;;;;4.10;2.05;;;;;;;4.54;70.54;97954.91;4988870;28;20078;-61
2023/01/17 07:00:00;;;;;;;7.63;2.58;;;;;;;4.53;70.74;97965.44;4994381;28;20070;-62
2023/01/17 07:02:25;;;;;;;4.97;2.63;;;;;;;4.52;70.67;97963.78;4993982;28;20182;-60
2023/01/17 07:04:51;;;;;;;4.57;2.35;;;;;;;4.49;70.85;97970.03;4988518;28;20102;-62
2023/01/17 07:07:16;;;;;;;3.20;2.00;;;;;;;4.49;70.95;97979.63;4985748;28;20075;-60
2023/01/17 07:09:42;;;;;;;5.65;2.30;;;;;;;4.50;71.17;97984.72;4985157;28;20125;-63
2023/01/17 07:12:08;;;;;;;4.07;2.30;;;;;;;4.53;71.12;97987.09;4989281;28;20128;-62
2023/01/17 07:14:34;;;;;;;3.83;2.17;;;;;;;4.55;71.03;97998.22;4990346;28;20142;-63
2023/01/17 07:16:59;;;;;;;4.75;2.25;;;;;;;4.57;71.28;97990.28;4976511;28;20442;-60
2023/01/17 07:19:25;;;;;;;3.20;1.73;;;;;;;4.59;71.42;97996.19;4991747;28;20425;-61
2023/01/17 07:21:52;;;;;;;6.13;2.20;;;;;;;4.58;71.21;97991.94;4983508;28;20562;-60
2023/01/17 07:24:18;;;;;;;4.60;1.70;;;;;;;4.58;71.50;98004.97;4985527;28;20129;-64
2023/01/17 07:26:46;;;;;;;4.32;1.42;;;;;;;4.58;71.65;98003.19;4986978;28;20083;-61
2023/01/17 07:29:12;;;;;;;2.33;1.63;;;;;;;4.61;71.71;97993.50;4990126;28;20091;-63
2023/01/17 07:31:39;;;;;;;3.50;1.73;;;;;;;4.62;71.62;98003.78;4993759;28;20079;-63
2023/01/17 07:34:05;;;;;;;5.63;1.90;;;;;;;4.65;71.70;98006.16;4986608;28;20572;-63
2023/01/17 07:36:30;;;;;;;2.85;1.65;;;;;;;4.68;71.60;98011.13;4979407;28;20087;-63
2023/01/17 07:38:56;;;;;;;4.45;1.52;;;;;;;4.70;71.29;98014.44;4984475;28;20482;-61
2023/01/17 07:41:21;;;;;;;2.75;1.52;;;;;;;4.73;71.45;98013.38;4988652;28;20106;-62
2023/01/17 07:43:47;;;;;;;2.63;1.48;;;;;;;4.75;71.73;98014.09;4988378;28;20455;-62
2023/01/17 07:46:14;;;;;;;2.58;1.55;;;;;;;4.78;71.83;98013.03;4990840;28;20117;-61
2023/01/17 07:48:40;;;;;;;3.00;1.80;;;;;;;4.80;71.75;98024.16;4985742;28;20144;-59
2023/01/17 07:51:07;;;;;;;4.18;2.50;;;;;;;4.85;71.38;98016.78;4983541;28;20558;-63
2023/01/17 07:53:33;;;;;;;2.25;1.42;;;;;;;4.87;71.45;98020.97;4992039;28;20105;-59
2023/01/17 07:56:03;;;;;;;4.03;2.22;;;;;;;4.90;71.57;98024.28;4991478;28;20094;-60
2023/01/17 07:58:30;;;;;;;5.40;2.13;;;;;;;4.97;71.39;98039.31;4993005;28;20067;-62
2023/01/17 08:01:07;;;;;;;3.05;1.50;;;;;;;4.99;71.40;98045.22;4990569;28;20070;-61
2023/01/17 08:03:38;;;;;;;4.78;1.48;;;;;;;4.99;71.69;98039.19;4994823;28;20094;-61
2023/01/17 08:06:18;;;;;;;3.35;1.70;;;;;;;4.99;71.71;98044.41;4996918;28;20433;-64
2023/01/17 08:08:45;;;;;;;3.50;2.17;;;;;;;5.01;71.85;98043.31;4989244;28;20090;-63
2023/01/17 08:11:10;;;;;;;2.20;1.50;;;;;;;5.03;71.48;98045.81;4979630;28;20466;-62
2023/01/17 08:13:36;;;;;;;3.78;1.60;;;;;;;5.09;71.28;98052.31;4989609;28;20091;-63
2023/01/17 08:16:02;;;;;;;2.22;1.42;;;;;;;5.13;71.25;98057.19;4992703;28;20086;-61
2023/01/17 08:18:28;;;;;;;2.63;1.45;;;;;;;5.16;70.91;98054.34;4990907;28;20512;-64
2023/01/17 08:20:53;;;;;;;2.50;1.25;;;;;;;5.23;70.68;98059.06;4991468;28;20082;-62
2023/01/17 08:23:19;;;;;;;2.38;1.23;;;;;;;5.27;70.98;98065.69;4993962;28;20164;-61
2023/01/17 08:25:45;;;;;;;2.42;1.20;;;;;;;5.28;70.57;98064.75;4984971;28;20178;-64
2023/01/17 08:28:11;;;;;;;1.83;1.30;;;;;;;5.26;70.53;98061.41;4987138;28;20160;-61
2023/01/17 08:30:36;;;;;;;2.78;1.35;;;;;;;5.26;70.45;98066.63;4985611;28;20132;-63
2023/01/17 08:33:02;;;;;;;2.85;1.65;;;;;;;5.27;70.53;98060.47;4984296;28;20090;-63
2023/01/17 08:35:27;;;;;;;2.50;1.08;;;;;;;5.28;70.43;98067.34;4984856;28;20090;-62
2023/01/17 08:38:03;;;;;;;4.22;1.50;;;;;;;5.29;70.50;98066.41;4984006;28;20180;-60
2023/01/17 08:40:31;;;;;;;5.75;2.20;;;;;;;5.27;70.58;98074.34;4984411;28;20581;-58
2023/01/17 08:42:58;;;;;;;3.03;1.48;;;;;;;5.22;71.31;98071.28;4983606;28;20152;-59
2023/01/17 08:45:24;;;;;;;2.50;1.50;;;;;;;5.20;71.65;98073.16;4980141;28;20526;-62
2023/01/17 08:47:50;;;;;;;3.03;1.60;;;;;;;5.18;72.10;98081.13;4987597;28;20126;-64
2023/01/17 08:50:19;;;;;;;5.05;2.78;;;;;;;5.18;72.36;98088.94;4986640;28;20181;-63
2023/01/17 08:52:47;;;;;;;2.05;1.17;;;;;;;5.18;72.58;98091.53;4994538;28;20477;-65
2023/01/17 08:55:12;;;;;;;6.18;2.35;;;;;;;5.22;72.14;98080.88;4986255;28;20601;-60
2023/01/17 08:57:38;;;;;;;4.55;2.17;;;;;;;5.25;71.90;98088.44;4988069;28;20098;-60
2023/01/17 09:00:04;;;;;;;3.90;2.35;;;;;;;5.31;71.96;98091.41;4995722;28;20086;-62
2023/01/17 09:02:29;;;;;;;2.90;1.90;;;;;;;5.37;71.82;98082.25;4992342;28;20067;-63
2023/01/17 09:04:55;;;;;;;4.30;2.30;;;;;;;5.46;71.69;98091.13;4993021;28;20820;-61
2023/01/17 09:07:20;;;;;;;3.72;2.20;;;;;;;5.51;71.71;98101.22;4989600;28;20481;-59
2023/01/17 09:09:46;;;;;;;2.20;1.60;;;;;;;5.52;71.77;98102.88;4984342;28;20498;-61
2023/01/17 09:12:11;;;;;;;4.30;2.20;;;;;;;5.55;71.68;98107.84;4984007;28;20090;-62
2023/01/17 09:14:37;;;;;;;4.63;2.45;;;;;;;5.59;71.57;98098.81;4980270;28;20102;-59
2023/01/17 09:17:04;;;;;;;2.92;2.15;;;;;;;5.57;71.45;98113.78;4991735;28;20446;-59
2023/01/17 09:19:30;;;;;;;4.60;2.30;;;;;;;5.56;71.26;98110.34;4990124;28;20462;-60
2023/01/17 09:21:55;;;;;;;7.28;4.22;;;;;;;5.57;71.59;98111.16;4988473;28;20106;-62
2023/01/17 09:24:21;;;;;;;3.63;1.90;;;;;;;5.62;71.29;98103.81;4987858;28;20588;-62
2023/01/17 09:26:47;;;;;;;3.53;1.92;;;;;;;5.62;71.53;98103.81;4992307;28;20078;-63
2023/01/17 09:29:16;;;;;;;4.63;1.70;;;;;;;5.63;71.18;98110.69;4994326;28;20430;-60
2023/01/17 09:31:43;;;;;;;2.95;1.95;;;;;;;5.63;71.24;98121.13;4989758;28;20078;-63
2023/01/17 09:34:09;;;;;;;3.67;2.25;;;;;;;5.68;70.92;98118.13;4986454;28;20177;-60
2023/01/17 09:36:34;;;;;;;3.20;2.03;;;;;;;5.72;70.67;98120.38;4991345;28;20162;-63
2023/01/17 09:39:01;;;;;;;3.70;2.10;;;;;;;5.71;70.91;98118.72;4986869;28;20082;-64
2023/01/17 09:41:29;;;;;;;2.67;1.90;;;;;;;5.83;70.29;98121.28;4982941;28;20126;-61
2023/01/17 09:44:06;;;;;;;2.72;1.63;;;;;;;5.95;69.90;98125.56;4987037;28;20105;-61
2023/01/17 09:46:38;;;;;;;1.83;1.25;;;;;;;6.00;69.82;98117.38;4990026;28;20578;-62
2023/01/17 09:49:20;;;;;;;3.58;1.55;;;;;;;6.04;69.33;98140.50;4989672;28;20090;-59
2023/01/17 09:51:46;;;;;;;1.58;1.20;;;;;;;6.05;69.39;98120.44;4981238;28;20083;-60
2023/01/17 09:54:22;;;;;;;1.60;1.10;;;;;;;6.02;69.39;98121.50;4992100;28;20447;-62
2023/01/17 09:56:59;;;;;;;2.47;1.25;;;;;;;6.02;69.03;98128.53;4993548;28;20074;-63
2023/01/17 09:59:56;;;;;;;2.60;1.35;;;;;;;6.01;69.32;98132.09;4991566;28;20079;-62
2023/01/17 10:02:30;;;;;;;2.47;1.15;;;;;;;5.97;68.77;98134.09;4992514;28;20225;-63
2023/01/17 10:05:33;;;;;;;1.38;0.80;;;;;;;6.00;68.53;98135.66;4994541;28;20528;-63
2023/01/17 10:08:07;;;;;;;1.67;1.05;;;;;;;6.08;68.75;98133.22;4987957;28;20082;-60
2023/01/17 10:10:40;;;;;;;1.60;0.90;;;;;;;6.08;68.51;98136.69;4985722;28;20091;-60
2023/01/17 10:13:37;;;;;;;1.88;0.98;;;;;;;6.05;68.23;98144.75;4990829;28;20078;-61
2023/01/17 10:16:20;;;;;;;1.13;0.80;;;;;;;6.08;68.48;98147.13;4991096;28;20477;-62
2023/01/17 10:19:23;;;;;;;1.75;1.10;;;;;;;6.12;68.44;98154.72;4987605;28;20090;-63
2023/01/17 10:21:58;;;;;;;1.30;0.68;;;;;;;6.20;68.39;98160.13;4994091;28;20096;-63
2023/01/17 10:24:55;;;;;;;1.95;0.70;;;;;;;6.14;67.81;98173.69;4989475;28;20087;-65
2023/01/17 10:27:27;;;;;;;3.38;0.90;;;;;;;6.10;68.17;98171.34;4983404;28;20152;-62
2023/01/17 10:29:53;;;;;;;1.65;0.90;;;;;;;6.05;68.48;98178.69;4980172;28;20097;-61
2023/01/17 10:32:23;;;;;;;1.33;0.85;;;;;;;6.00;68.24;98191.28;4984037;28;20102;-62
2023/01/17 10:35:00;;;;;;;2.78;1.00;;;;;;;5.93;67.95;98182.25;4981919;28;20468;-63
2023/01/17 10:37:56;;;;;;;1.52;0.80;;;;;;;5.87;68.33;98190.56;4984276;28;20545;-63
2023/01/17 10:40:43;;;;;;;1.67;0.70;;;;;;;5.83;68.58;98199.59;4967223;28;20234;-60
2023/01/17 10:43:16;;;;;;;1.27;0.50;;;;;;;5.84;68.76;98216.91;4982555;28;20079;-60
2023/01/17 10:45:51;;;;;;;0.90;0.45;;;;;;;5.82;68.67;98218.84;4985078;28;20113;-61
2023/01/17 10:48:38;;;;;;;1.15;0.52;;;;;;;5.75;68.92;98218.44;4983585;28;20079;-62
2023/01/17 10:51:13;;;;;;;0.50;0.40;;;;;;;5.66;69.33;98220.03;4988662;28;20078;-58
2023/01/17 10:53:42;;;;;;;0.75;0.57;;;;;;;5.62;68.98;98229.03;4984247;28;20179;-62
2023/01/17 10:56:10;;;;;;;2.63;0.50;;;;;;;5.61;69.12;98243.84;4985016;28;20154;-59
2023/01/17 10:58:35;;;;;;;1.00;0.40;;;;;;;5.60;69.13;98241.38;4981194;28;20071;-65
2023/01/17 11:01:11;;;;;;;1.08;0.52;;;;;;;5.60;69.40;98238.75;4982221;28;20101;-62
2023/01/17 11:03:37;;;;;;;1.55;0.60;;;;;;;5.63;69.27;98241.13;4986463;28;20474;-62
2023/01/17 11:06:23;;;;;;;0.60;0.32;;;;;;;5.67;69.16;98246.94;4986584;28;20550;-61
2023/01/17 11:08:55;;;;;;;0.77;0.38;;;;;;;5.80;68.80;98247.63;4983378;28;20105;-61
2023/01/17 11:11:24;;;;;;;0.65;0.30;;;;;;;5.91;68.48;98237.19;4977992;28;21557;-61
2023/01/17 11:13:52;;;;;;;1.50;0.60;;;;;;;5.93;68.48;98237.91;4984700;28;20156;-61
2023/01/17 11:16:21;;;;;;;1.77;0.60;;;;;;;6.02;68.23;98257.25;4986266;28;20075;-58
2023/01/17 11:19:02;;;;;;;1.33;0.60;;;;;;;6.05;68.22;98243.97;4984029;28;20090;-58
2023/01/17 11:21:27;;;;;;;1.42;0.50;;;;;;;6.11;67.88;98245.25;4985360;28;20538;-59
2023/01/17 11:23:56;;;;;;;0.73;0.50;;;;;;;6.17;67.71;98249.16;4987424;28;20109;-61
2023/01/17 11:26:31;;;;;;;4.07;0.77;;;;;;;6.19;67.62;98248.09;4990358;28;20082;-61
2023/01/17 11:29:27;;;;;;;0.35;0.30;;;;;;;6.18;66.85;98249.06;4996852;28;20101;-59
2023/01/17 11:31:55;;;;;;;1.10;0.40;;;;;;;6.23;66.86;98265.16;4990156;28;20106;-59
2023/01/17 11:34:30;;;;;;;2.83;0.40;;;;;;;6.25;66.43;98259.84;4995088;28;20173;-60
2023/01/17 11:37:19;;;;;;;1.42;0.35;;;;;;;6.25;66.16;98283.34;4986966;28;20165;-59
2023/01/17 11:39:47;;;;;;;0.60;0.30;;;;;;;6.22;66.32;98281.78;4985357;28;20079;-59
2023/01/17 11:42:33;;;;;;;0.65;0.32;;;;;;;6.24;65.96;98281.69;4983961;28;20501;-62
2023/01/17 11:45:25;;;;;;;0.65;0.30;;;;;;;6.31;65.60;98275.00;4987041;28;20486;-60
2023/01/17 11:48:10;;;;;;;0.40;0.20;;;;;;;6.31;65.20;98277.63;4987949;28;20089;-60
2023/01/17 11:50:39;;;;;;;0.85;0.47;;;;;;;6.28;65.92;98285.69;4992681;28;20097;-62
2023/01/17 11:53:32;;;;;;;0.40;0.30;;;;;;;6.25;65.27;98272.91;4987727;28;20083;-64
2023/01/17 11:56:16;;;;;;;0.35;0.30;;;;;;;6.13;66.00;98279.06;4985592;28;20191;-64
2023/01/17 11:58:42;;;;;;;1.55;0.47;;;;;;;6.09;66.20;98288.94;4982042;28;20082;-63
2023/01/17 12:01:26;;;;;;;2.08;0.35;;;;;;;6.02;66.04;98283.38;4984086;28;20181;-62
2023/01/17 12:04:16;;;;;;;0.55;0.28;;;;;;;5.95;66.74;98300.44;4981329;28;20181;-62
2023/01/17 12:06:48;;;;;;;0.63;0.30;;;;;;;5.96;66.42;98312.53;4983501;28;20526;-61
2023/01/17 12:09:21;;;;;;;0.20;0.20;;;;;;;5.97;66.97;98303.75;4989698;28;20082;-63
2023/01/17 12:15:17;;;;;;;2.00;0.38;;;;;;;6.00;66.40;98310.56;4984624;28;20620;-61
2023/01/17 12:18:19;;;;;;;1.23;0.32;;;;;;;6.04;66.28;98306.75;4979181;28;20089;-63
2023/01/17 12:20:54;;;;;;;;;;;;;;;5.96;65.87;98309.94;4969533;28;20074;-60
2023/01/17 12:23:42;;;;;;;1.00;0.30;;;;;;;5.93;66.13;98318.00;4982902;28;19967;-61
2023/01/17 12:26:29;;;;;;;7.85;0.63;;;;;;;5.92;66.47;98313.72;4982413;28;20612;-64
2023/01/17 12:29:19;;;;;;;0.45;0.20;;;;;;;5.92;66.20;98314.53;4985326;28;20148;-59
2023/01/17 12:32:03;;;;;;;0.70;0.40;;;;;;;5.94;66.12;98324.88;4983662;28;20137;-62
2023/01/17 12:34:37;;;;;;;1.85;0.50;;;;;;;5.95;66.48;98331.75;5003230;23;20564;-56
2023/01/17 12:37:12;;;;;;;1.45;0.55;;;;;;;5.94;66.12;98336.13;5005032;28;20087;-57
2023/01/17 12:39:45;;;;;;;1.83;0.40;;;;;;;5.97;66.01;98337.69;5002899;28;20132;-57
2023/01/17 12:42:20;;;;;;;0.73;0.30;;;;;;;5.98;66.13;98334.09;5002669;28;20618;-55
2023/01/17 12:44:45;;;;;;;0.20;0.20;;;;;;;5.86;66.57;98355.94;5002476;28;20098;-53
2023/01/17 12:47:13;;;;;;;0.95;0.30;;;;;;;5.74;66.52;98355.94;5023772;28;20128;-58
2023/01/17 12:50:07;;;;;;;0.38;0.32;;;;;;;5.64;66.69;98352.38;4999926;28;21172;-55
2023/01/17 12:52:45;;;;;;;1.00;0.30;;;;;;;5.54;67.29;98357.44;4992830;28;20465;-53
2023/01/17 12:55:19;;;;;;;0.50;0.30;;;;;;;5.57;67.40;98357.22;5002966;28;20520;-58
2023/01/17 12:57:52;;;;;;;2.35;0.90;;;;;;;5.65;67.13;98361.88;5000402;28;20121;-57
2023/01/17 13:00:21;;;;;;;1.88;0.30;;;;;;;5.71;66.62;98364.00;4990391;28;20646;-53
2023/01/17 13:03:13;;;;;;;1.23;0.65;;;;;;;5.80;66.41;98367.69;5004021;28;20106;-55
2023/01/17 13:05:43;;;;;;;0.98;0.30;;;;;;;5.90;65.97;98367.81;5005945;28;20101;-54
2023/01/17 13:08:52;;;;;;;1.25;0.38;;;;;;;6.00;64.65;98379.25;5000577;28;20148;-55
2023/01/17 13:11:29;;;;;;;1.17;0.30;;;;;;;6.05;65.48;98376.31;4981412;28;20125;-52
2023/01/17 13:13:56;;;;;;;0.35;0.30;;;;;;;6.02;65.29;98390.41;4978561;28;20117;-56
2023/01/17 13:16:40;;;;;;;1.00;0.30;;;;;;;5.91;66.02;98391.19;4989282;28;20504;-55
2023/01/17 13:19:23;;;;;;;2.20;0.32;;;;;;;5.74;66.33;98405.53;5002445;28;20074;-53
2023/01/17 13:21:49;;;;;;;1.38;0.40;;;;;;;5.65;66.49;98406.22;4991430;28;20093;-54
2023/01/17 13:24:23;;;;;;;0.38;0.28;;;;;;;5.56;66.93;98405.13;5002306;28;20090;-56